Cowdrey, Colorado
Current Conditions -  °F | °C
As of 3:55 AM on Wednesday 22 Oct 2014 (Local Time) from K33V Reporting Station
Scattered Clouds Scattered Clouds  
Wind Chill: 31°   Ceiling: Unl
Heat Index: 37°   Visibility: 10mi
Dew Point: 32°   Wind: 9mph
Humidity: 81%   Direction: 190°S
Pressure: 30.15"   Gusts: NA
Location:  40.86°N, 106.31°W
Report Text: K33V 220955Z AUTO 19008KT 10SM SCT090 03/00 A3015 RMK AO2
Loading
Personal Weather Stations






























Interactive Weather Map
Tropical Storm Tracking
New forecast layout! Learn more

10-Day Weather Forecast

Advertisements
Track Severe Weather on mobile